sensor_id;sensor_type;location;lat;lon;timestamp;pressure;altitude;pressure_sealevel;temperature;humidity
56006;BME280;41888;44.696;10.522;2023-05-07T00:00:45;100473.69;;;17.49;100.00
56006;BME280;41888;44.696;10.522;2023-05-07T00:03:12;100466.34;;;17.45;100.00
56006;BME280;41888;44.696;10.522;2023-05-07T00:05:39;100465.53;;;17.44;100.00
56006;BME280;41888;44.696;10.522;2023-05-07T00:08:05;100468.56;;;17.31;100.00
56006;BME280;41888;44.696;10.522;2023-05-07T00:10:32;100462.88;;;17.27;100.00
56006;BME280;41888;44.696;10.522;2023-05-07T00:12:58;100462.22;;;17.20;100.00
56006;BME280;41888;44.696;10.522;2023-05-07T00:15:24;100463.06;;;17.21;100.00
56006;BME280;41888;44.696;10.522;2023-05-07T00:17:50;100456.03;;;17.20;100.00
56006;BME280;41888;44.696;10.522;2023-05-07T00:20:16;100458.81;;;17.08;100.00
56006;BME280;41888;44.696;10.522;2023-05-07T00:22:42;100456.81;;;16.99;100.00
56006;BME280;41888;44.696;10.522;2023-05-07T00:25:09;100452.31;;;17.04;100.00
56006;BME280;41888;44.696;10.522;2023-05-07T00:27:36;100461.44;;;17.03;100.00
56006;BME280;41888;44.696;10.522;2023-05-07T00:30:02;100457.94;;;17.03;100.00
56006;BME280;41888;44.696;10.522;2023-05-07T00:32:28;100461.22;;;16.88;100.00
56006;BME280;41888;44.696;10.522;2023-05-07T00:34:54;100463.81;;;16.83;100.00
56006;BME280;41888;44.696;10.522;2023-05-07T00:37:21;100467.47;;;16.94;100.00
56006;BME280;41888;44.696;10.522;2023-05-07T00:39:47;100466.72;;;16.98;100.00
56006;BME280;41888;44.696;10.522;2023-05-07T00:42:13;100467.63;;;16.87;100.00
56006;BME280;41888;44.696;10.522;2023-05-07T00:44:41;100466.59;;;16.88;100.00
56006;BME280;41888;44.696;10.522;2023-05-07T00:47:07;100476.03;;;16.91;100.00
56006;BME280;41888;44.696;10.522;2023-05-07T00:49:38;100479.34;;;16.98;100.00
56006;BME280;41888;44.696;10.522;2023-05-07T00:52:07;100470.59;;;17.02;100.00
56006;BME280;41888;44.696;10.522;2023-05-07T00:54:35;100466.34;;;16.89;100.00
56006;BME280;41888;44.696;10.522;2023-05-07T00:57:02;100474.31;;;17.01;100.00
56006;BME280;41888;44.696;10.522;2023-05-07T00:59:30;100472.38;;;16.97;100.00
56006;BME280;41888;44.696;10.522;2023-05-07T01:01:57;100473.13;;;16.75;100.00
56006;BME280;41888;44.696;10.522;2023-05-07T01:04:23;100472.41;;;16.52;100.00
56006;BME280;41888;44.696;10.522;2023-05-07T01:06:51;100468.56;;;16.47;100.00
56006;BME280;41888;44.696;10.522;2023-05-07T01:09:19;100471.81;;;16.33;100.00
56006;BME280;41888;44.696;10.522;2023-05-07T01:11:46;100473.03;;;16.42;100.00
56006;BME280;41888;44.696;10.522;2023-05-07T01:14:13;100472.81;;;16.43;100.00
56006;BME280;41888;44.696;10.522;2023-05-07T01:16:39;100473.94;;;16.47;100.00
56006;BME280;41888;44.696;10.522;2023-05-07T01:19:07;100472.81;;;16.43;100.00
56006;BME280;41888;44.696;10.522;2023-05-07T01:21:34;100474.91;;;16.41;100.00
56006;BME280;41888;44.696;10.522;2023-05-07T01:24:03;100477.28;;;16.38;100.00
56006;BME280;41888;44.696;10.522;2023-05-07T01:26:31;100479.78;;;16.44;100.00
56006;BME280;41888;44.696;10.522;2023-05-07T01:28:57;100483.72;;;16.54;100.00
56006;BME280;41888;44.696;10.522;2023-05-07T01:31:24;100483.22;;;16.57;100.00
56006;BME280;41888;44.696;10.522;2023-05-07T01:33:52;100474.91;;;16.41;100.00
56006;BME280;41888;44.696;10.522;2023-05-07T01:36:20;100482.19;;;16.29;100.00
56006;BME280;41888;44.696;10.522;2023-05-07T01:38:50;100485.25;;;16.33;100.00
56006;BME280;41888;44.696;10.522;2023-05-07T01:41:16;100489.03;;;16.20;100.00
56006;BME280;41888;44.696;10.522;2023-05-07T01:43:43;100494.78;;;16.12;100.00
56006;BME280;41888;44.696;10.522;2023-05-07T01:46:10;100489.84;;;16.21;100.00
56006;BME280;41888;44.696;10.522;2023-05-07T01:48:37;100487.66;;;16.18;100.00
56006;BME280;41888;44.696;10.522;2023-05-07T01:51:05;100486.25;;;16.15;100.00
56006;BME280;41888;44.696;10.522;2023-05-07T01:53:39;100491.22;;;16.23;100.00
56006;BME280;41888;44.696;10.522;2023-05-07T01:56:05;100488.53;;;16.23;100.00
56006;BME280;41888;44.696;10.522;2023-05-07T01:58:32;100490.47;;;16.11;100.00
56006;BME280;41888;44.696;10.522;2023-05-07T02:00:58;100495.53;;;16.24;100.00
56006;BME280;41888;44.696;10.522;2023-05-07T02:03:24;100496.22;;;16.31;100.00
56006;BME280;41888;44.696;10.522;2023-05-07T02:05:50;100495.53;;;16.24;100.00
56006;BME280;41888;44.696;10.522;2023-05-07T02:08:16;100489.53;;;16.34;100.00
56006;BME280;41888;44.696;10.522;2023-05-07T02:10:42;100486.47;;;16.42;100.00
56006;BME280;41888;44.696;10.522;2023-05-07T02:13:08;100486.25;;;16.43;100.00
56006;BME280;41888;44.696;10.522;2023-05-07T02:15:35;100483.22;;;16.57;100.00
56006;BME280;41888;44.696;10.522;2023-05-07T02:18:08;100490.06;;;16.47;100.00
56006;BME280;41888;44.696;10.522;2023-05-07T02:20:35;100489.56;;;16.51;100.00
56006;BME280;41888;44.696;10.522;2023-05-07T02:23:01;100494.94;;;16.51;100.00
56006;BME280;41888;44.696;10.522;2023-05-07T02:25:27;100483.88;;;16.47;100.00
56006;BME280;41888;44.696;10.522;2023-05-07T02:27:55;100492.34;;;16.56;100.00
56006;BME280;41888;44.696;10.522;2023-05-07T02:30:21;100494.31;;;16.60;100.00
56006;BME280;41888;44.696;10.522;2023-05-07T02:32:47;100489.09;;;16.54;100.00
56006;BME280;41888;44.696;10.522;2023-05-07T02:35:13;100490.66;;;16.50;100.00
56006;BME280;41888;44.696;10.522;2023-05-07T02:37:40;100487.28;;;16.42;100.00
56006;BME280;41888;44.696;10.522;2023-05-07T02:40:06;100486.78;;;16.45;100.00
56006;BME280;41888;44.696;10.522;2023-05-07T02:42:32;100494.94;;;16.51;100.00
56006;BME280;41888;44.696;10.522;2023-05-07T02:44:59;100498.59;;;16.44;100.00
56006;BME280;41888;44.696;10.522;2023-05-07T02:47:25;100490.97;;;16.53;100.00
56006;BME280;41888;44.696;10.522;2023-05-07T02:49:54;100495.13;;;16.44;100.00
56006;BME280;41888;44.696;10.522;2023-05-07T02:52:21;100498.03;;;16.42;100.00
56006;BME280;41888;44.696;10.522;2023-05-07T02:54:47;100498.75;;;16.38;100.00
56006;BME280;41888;44.696;10.522;2023-05-07T02:57:14;100511.47;;;16.42;100.00
56006;BME280;41888;44.696;10.522;2023-05-07T02:59:41;100508.09;;;16.35;100.00
56006;BME280;41888;44.696;10.522;2023-05-07T03:02:07;100511.00;;;16.34;100.00
56006;BME280;41888;44.696;10.522;2023-05-07T03:04:33;100508.31;;;16.17;100.00
56006;BME280;41888;44.696;10.522;2023-05-07T03:07:03;100506.84;;;16.26;100.00
56006;BME280;41888;44.696;10.522;2023-05-07T03:09:35;100510.22;;;16.33;100.00
56006;BME280;41888;44.696;10.522;2023-05-07T03:12:01;100500.16;;;16.12;100.00
56006;BME280;41888;44.696;10.522;2023-05-07T03:14:28;100508.66;;;16.09;100.00
56006;BME280;41888;44.696;10.522;2023-05-07T03:16:54;100508.78;;;16.02;100.00
56006;BME280;41888;44.696;10.522;2023-05-07T03:19:20;100514.84;;;16.10;100.00
56006;BME280;41888;44.696;10.522;2023-05-07T03:21:47;100507.72;;;16.15;100.00
56006;BME280;41888;44.696;10.522;2023-05-07T03:24:13;100511.47;;;16.02;100.00
56006;BME280;41888;44.696;10.522;2023-05-07T03:26:39;100514.75;;;16.04;100.00
56006;BME280;41888;44.696;10.522;2023-05-07T03:29:05;100511.06;;;15.94;100.00
56006;BME280;41888;44.696;10.522;2023-05-07T03:31:31;100509.00;;;15.73;100.00
56006;BME280;41888;44.696;10.522;2023-05-07T03:33:58;100510.06;;;15.60;100.00
56006;BME280;41888;44.696;10.522;2023-05-07T03:36:24;100509.28;;;15.59;100.00
56006;BME280;41888;44.696;10.522;2023-05-07T03:38:52;100507.84;;;15.69;100.00
56006;BME280;41888;44.696;10.522;2023-05-07T03:41:18;100512.72;;;15.72;100.00
56006;BME280;41888;44.696;10.522;2023-05-07T03:43:46;100516.81;;;15.74;100.00
56006;BME280;41888;44.696;10.522;2023-05-07T03:46:12;100524.75;;;15.69;100.00
56006;BME280;41888;44.696;10.522;2023-05-07T03:48:38;100520.44;;;15.80;100.00
56006;BME280;41888;44.696;10.522;2023-05-07T03:51:05;100526.25;;;15.77;100.00
56006;BME280;41888;44.696;10.522;2023-05-07T03:53:31;100523.09;;;15.91;100.00
56006;BME280;41888;44.696;10.522;2023-05-07T03:55:57;100525.28;;;15.94;100.00
56006;BME280;41888;44.696;10.522;2023-05-07T03:58:23;100533.94;;;15.85;100.00
56006;BME280;41888;44.696;10.522;2023-05-07T04:00:49;100530.56;;;15.78;100.00
56006;BME280;41888;44.696;10.522;2023-05-07T04:03:16;100528.50;;;15.68;100.00
56006;BME280;41888;44.696;10.522;2023-05-07T04:05:43;100533.63;;;15.70;100.00
56006;BME280;41888;44.696;10.522;2023-05-07T04:08:09;100530.03;;;15.52;100.00
56006;BME280;41888;44.696;10.522;2023-05-07T04:10:35;100531.97;;;15.34;100.00
56006;BME280;41888;44.696;10.522;2023-05-07T04:13:02;100536.66;;;15.27;100.00
56006;BME280;41888;44.696;10.522;2023-05-07T04:15:28;100541.06;;;15.21;100.00
56006;BME280;41888;44.696;10.522;2023-05-07T04:17:54;100538.63;;;15.31;100.00
56006;BME280;41888;44.696;10.522;2023-05-07T04:20:20;100538.75;;;15.36;100.00
56006;BME280;41888;44.696;10.522;2023-05-07T04:22:46;100545.16;;;15.35;100.00
56006;BME280;41888;44.696;10.522;2023-05-07T04:25:12;100551.00;;;15.44;100.00
56006;BME280;41888;44.696;10.522;2023-05-07T04:27:38;100549.25;;;15.38;100.00
56006;BME280;41888;44.696;10.522;2023-05-07T04:30:05;100550.84;;;15.39;100.00
56006;BME280;41888;44.696;10.522;2023-05-07T04:32:32;100556.09;;;15.22;100.00
56006;BME280;41888;44.696;10.522;2023-05-07T04:34:58;100551.66;;;15.39;100.00
56006;BME280;41888;44.696;10.522;2023-05-07T04:37:26;100551.53;;;15.34;100.00
56006;BME280;41888;44.696;10.522;2023-05-07T04:39:52;100552.63;;;15.33;100.00
56006;BME280;41888;44.696;10.522;2023-05-07T04:42:18;100561.56;;;15.15;100.00
56006;BME280;41888;44.696;10.522;2023-05-07T04:44:45;100552.84;;;15.20;100.00
56006;BME280;41888;44.696;10.522;2023-05-07T04:47:12;100554.38;;;15.28;100.00
56006;BME280;41888;44.696;10.522;2023-05-07T04:49:39;100555.75;;;15.42;100.00
56006;BME280;41888;44.696;10.522;2023-05-07T04:52:05;100560.31;;;15.41;100.00
56006;BME280;41888;44.696;10.522;2023-05-07T04:54:31;100566.13;;;15.50;100.00
56006;BME280;41888;44.696;10.522;2023-05-07T04:56:57;100560.34;;;15.65;100.00
56006;BME280;41888;44.696;10.522;2023-05-07T04:59:24;100558.91;;;15.74;100.00
56006;BME280;41888;44.696;10.522;2023-05-07T05:01:50;100570.09;;;15.82;100.00
56006;BME280;41888;44.696;10.522;2023-05-07T05:04:16;100575.72;;;15.81;100.00
56006;BME280;41888;44.696;10.522;2023-05-07T05:06:42;100578.44;;;16.09;100.00
56006;BME280;41888;44.696;10.522;2023-05-07T05:09:08;100581.63;;;15.94;100.00
56006;BME280;41888;44.696;10.522;2023-05-07T05:11:34;100582.78;;;16.10;100.00
56006;BME280;41888;44.696;10.522;2023-05-07T05:14:01;100593.63;;;16.15;100.00
56006;BME280;41888;44.696;10.522;2023-05-07T05:16:27;100593.66;;;16.72;100.00
56006;BME280;41888;44.696;10.522;2023-05-07T05:18:54;100591.97;;;17.44;100.00
56006;BME280;41888;44.696;10.522;2023-05-07T05:21:21;100594.72;;;17.66;100.00
56006;BME280;41888;44.696;10.522;2023-05-07T05:23:47;100595.47;;;17.45;100.00
56006;BME280;41888;44.696;10.522;2023-05-07T05:26:13;100607.59;;;17.47;100.00
56006;BME280;41888;44.696;10.522;2023-05-07T05:28:39;100606.94;;;17.57;100.00
56006;BME280;41888;44.696;10.522;2023-05-07T05:31:05;100603.19;;;17.58;100.00
56006;BME280;41888;44.696;10.522;2023-05-07T05:33:32;100596.66;;;18.09;100.00
56006;BME280;41888;44.696;10.522;2023-05-07T05:35:58;100603.19;;;18.83;100.00
56006;BME280;41888;44.696;10.522;2023-05-07T05:38:24;100593.88;;;18.69;100.00
56006;BME280;41888;44.696;10.522;2023-05-07T05:40:51;100597.28;;;18.16;100.00
56006;BME280;41888;44.696;10.522;2023-05-07T05:43:17;100599.88;;;18.28;100.00
56006;BME280;41888;44.696;10.522;2023-05-07T05:45:44;100594.78;;;18.09;100.00
56006;BME280;41888;44.696;10.522;2023-05-07T05:48:10;100594.88;;;17.76;100.00
56006;BME280;41888;44.696;10.522;2023-05-07T05:50:36;100590.41;;;17.48;100.00
56006;BME280;41888;44.696;10.522;2023-05-07T05:53:02;100579.41;;;17.16;100.00
56006;BME280;41888;44.696;10.522;2023-05-07T05:55:29;100582.00;;;17.11;100.00
56006;BME280;41888;44.696;10.522;2023-05-07T05:57:55;100575.63;;;16.84;100.00
56006;BME280;41888;44.696;10.522;2023-05-07T06:00:22;100582.97;;;17.05;100.00
56006;BME280;41888;44.696;10.522;2023-05-07T06:02:48;100587.72;;;17.15;100.00
56006;BME280;41888;44.696;10.522;2023-05-07T06:05:15;100585.25;;;16.97;100.00
56006;BME280;41888;44.696;10.522;2023-05-07T06:07:41;100577.53;;;17.17;100.00
56006;BME280;41888;44.696;10.522;2023-05-07T06:10:07;100582.47;;;17.75;100.00
56006;BME280;41888;44.696;10.522;2023-05-07T06:12:34;100587.28;;;18.11;100.00
56006;BME280;41888;44.696;10.522;2023-05-07T06:15:00;100590.59;;;17.97;100.00
56006;BME280;41888;44.696;10.522;2023-05-07T06:17:27;100601.69;;;18.22;100.00
56006;BME280;41888;44.696;10.522;2023-05-07T06:19:53;100601.09;;;18.42;100.00
56006;BME280;41888;44.696;10.522;2023-05-07T06:22:19;100594.66;;;18.43;100.00
56006;BME280;41888;44.696;10.522;2023-05-07T06:24:45;100594.91;;;18.63;100.00
56006;BME280;41888;44.696;10.522;2023-05-07T06:27:12;100593.41;;;19.04;100.00
56006;BME280;41888;44.696;10.522;2023-05-07T06:29:38;100602.69;;;19.45;100.00
56006;BME280;41888;44.696;10.522;2023-05-07T06:32:11;100602.22;;;19.58;100.00
56006;BME280;41888;44.696;10.522;2023-05-07T06:34:38;100604.81;;;20.32;100.00
56006;BME280;41888;44.696;10.522;2023-05-07T06:37:05;100598.44;;;20.69;100.00
56006;BME280;41888;44.696;10.522;2023-05-07T06:39:32;100598.41;;;20.63;100.00
56006;BME280;41888;44.696;10.522;2023-05-07T06:41:59;100597.13;;;20.76;100.00
56006;BME280;41888;44.696;10.522;2023-05-07T06:44:25;100598.78;;;21.13;100.00
56006;BME280;41888;44.696;10.522;2023-05-07T06:46:52;100598.78;;;21.38;100.00
56006;BME280;41888;44.696;10.522;2023-05-07T06:49:18;100594.63;;;21.91;99.65
56006;BME280;41888;44.696;10.522;2023-05-07T06:51:44;100587.88;;;21.94;94.99
56006;BME280;41888;44.696;10.522;2023-05-07T06:54:10;100593.50;;;22.12;94.95
56006;BME280;41888;44.696;10.522;2023-05-07T06:56:37;100602.28;;;22.48;92.90
56006;BME280;41888;44.696;10.522;2023-05-07T06:59:03;100599.25;;;22.60;92.49
56006;BME280;41888;44.696;10.522;2023-05-07T07:01:29;100600.50;;;22.83;88.13
56006;BME280;41888;44.696;10.522;2023-05-07T07:03:55;100603.31;;;23.06;86.47
56006;BME280;41888;44.696;10.522;2023-05-07T07:06:22;100601.13;;;23.08;85.36
56006;BME280;41888;44.696;10.522;2023-05-07T07:08:48;100607.34;;;23.14;84.34
56006;BME280;41888;44.696;10.522;2023-05-07T07:11:14;100598.06;;;23.20;83.55
56006;BME280;41888;44.696;10.522;2023-05-07T07:13:41;100599.19;;;23.14;86.36
56006;BME280;41888;44.696;10.522;2023-05-07T07:16:09;100598.72;;;22.63;87.45
56006;BME280;41888;44.696;10.522;2023-05-07T07:18:35;100602.19;;;23.12;86.11
56006;BME280;41888;44.696;10.522;2023-05-07T07:21:01;100602.34;;;23.26;84.64
56006;BME280;41888;44.696;10.522;2023-05-07T07:23:28;100592.50;;;23.01;85.16
56006;BME280;41888;44.696;10.522;2023-05-07T07:25:54;100595.69;;;23.08;84.05
56006;BME280;41888;44.696;10.522;2023-05-07T07:28:21;100585.84;;;22.35;89.09
56006;BME280;41888;44.696;10.522;2023-05-07T07:30:47;100593.03;;;21.85;94.37
56006;BME280;41888;44.696;10.522;2023-05-07T07:33:14;100587.13;;;21.58;96.63
56006;BME280;41888;44.696;10.522;2023-05-07T07:35:40;100587.16;;;21.37;99.23
56006;BME280;41888;44.696;10.522;2023-05-07T07:38:06;100595.25;;;21.47;100.00
56006;BME280;41888;44.696;10.522;2023-05-07T07:40:35;100591.50;;;21.23;100.00
56006;BME280;41888;44.696;10.522;2023-05-07T07:43:01;100586.63;;;21.35;100.00
56006;BME280;41888;44.696;10.522;2023-05-07T07:45:28;100590.13;;;21.46;100.00
56006;BME280;41888;44.696;10.522;2023-05-07T07:47:54;100592.53;;;21.63;100.00
56006;BME280;41888;44.696;10.522;2023-05-07T07:50:21;100594.69;;;21.71;100.00
56006;BME280;41888;44.696;10.522;2023-05-07T07:52:47;100585.19;;;21.83;100.00
56006;BME280;41888;44.696;10.522;2023-05-07T07:55:14;100596.00;;;21.94;100.00
56006;BME280;41888;44.696;10.522;2023-05-07T07:57:43;100581.66;;;21.88;100.00
56006;BME280;41888;44.696;10.522;2023-05-07T08:00:10;100593.81;;;22.06;100.00
56006;BME280;41888;44.696;10.522;2023-05-07T08:02:36;100597.06;;;22.08;99.79
56006;BME280;41888;44.696;10.522;2023-05-07T08:05:03;100592.38;;;22.28;99.25
56006;BME280;41888;44.696;10.522;2023-05-07T08:07:29;100604.50;;;22.41;98.29
56006;BME280;41888;44.696;10.522;2023-05-07T08:09:55;100600.38;;;22.54;98.11
56006;BME280;41888;44.696;10.522;2023-05-07T08:12:21;100603.03;;;22.59;97.45
56006;BME280;41888;44.696;10.522;2023-05-07T08:14:48;100597.63;;;22.59;98.06
56006;BME280;41888;44.696;10.522;2023-05-07T08:17:14;100602.91;;;22.84;96.18
56006;BME280;41888;44.696;10.522;2023-05-07T08:19:42;100597.16;;;23.30;93.07
56006;BME280;41888;44.696;10.522;2023-05-07T08:22:10;100606.38;;;23.29;93.69
56006;BME280;41888;44.696;10.522;2023-05-07T08:24:36;100601.19;;;23.66;94.51
56006;BME280;41888;44.696;10.522;2023-05-07T08:27:03;100598.34;;;23.52;90.07
56006;BME280;41888;44.696;10.522;2023-05-07T08:29:29;100591.91;;;23.72;90.60
56006;BME280;41888;44.696;10.522;2023-05-07T08:31:55;100602.41;;;24.03;89.66
56006;BME280;41888;44.696;10.522;2023-05-07T08:34:22;100597.06;;;23.74;88.42
56006;BME280;41888;44.696;10.522;2023-05-07T08:36:48;100594.13;;;23.65;92.01
56006;BME280;41888;44.696;10.522;2023-05-07T08:39:18;100595.91;;;23.51;92.29
56006;BME280;41888;44.696;10.522;2023-05-07T08:41:48;100599.00;;;23.68;90.83
56006;BME280;41888;44.696;10.522;2023-05-07T08:44:21;100590.69;;;23.83;90.26
56006;BME280;41888;44.696;10.522;2023-05-07T08:46:49;100596.25;;;23.73;91.19
56006;BME280;41888;44.696;10.522;2023-05-07T08:49:17;100596.06;;;23.88;88.69
56006;BME280;41888;44.696;10.522;2023-05-07T08:51:44;100594.66;;;23.67;92.36
56006;BME280;41888;44.696;10.522;2023-05-07T08:54:11;100588.00;;;24.02;92.63
56006;BME280;41888;44.696;10.522;2023-05-07T08:56:38;100586.94;;;23.79;91.65
56006;BME280;41888;44.696;10.522;2023-05-07T08:59:06;100583.72;;;23.96;89.33
56006;BME280;41888;44.696;10.522;2023-05-07T09:01:32;100588.19;;;23.87;87.53
56006;BME280;41888;44.696;10.522;2023-05-07T09:03:58;100584.16;;;23.84;90.24
56006;BME280;41888;44.696;10.522;2023-05-07T09:06:24;100587.09;;;23.88;90.63
56006;BME280;41888;44.696;10.522;2023-05-07T09:08:54;100580.56;;;24.13;87.71
56006;BME280;41888;44.696;10.522;2023-05-07T09:11:24;100585.00;;;23.80;86.76
56006;BME280;41888;44.696;10.522;2023-05-07T09:13:54;100587.50;;;24.24;87.35
56006;BME280;41888;44.696;10.522;2023-05-07T09:16:23;100577.34;;;24.53;85.15
56006;BME280;41888;44.696;10.522;2023-05-07T09:18:52;100581.31;;;24.61;84.40
56006;BME280;41888;44.696;10.522;2023-05-07T09:21:19;100573.22;;;24.37;82.58
56006;BME280;41888;44.696;10.522;2023-05-07T09:23:45;100573.13;;;24.61;82.25
56006;BME280;41888;44.696;10.522;2023-05-07T09:26:14;100573.22;;;24.74;81.37
56006;BME280;41888;44.696;10.522;2023-05-07T09:28:41;100577.34;;;24.91;82.44
56006;BME280;41888;44.696;10.522;2023-05-07T09:31:08;100566.91;;;24.79;81.54
56006;BME280;41888;44.696;10.522;2023-05-07T09:33:34;100576.22;;;24.92;80.78
56006;BME280;41888;44.696;10.522;2023-05-07T09:36:08;100571.31;;;24.94;82.63
56006;BME280;41888;44.696;10.522;2023-05-07T09:38:35;100575.75;;;24.90;79.80
56006;BME280;41888;44.696;10.522;2023-05-07T09:41:12;100575.56;;;25.00;79.29
56006;BME280;41888;44.696;10.522;2023-05-07T09:43:40;100574.53;;;24.96;79.55
56006;BME280;41888;44.696;10.522;2023-05-07T09:46:16;100573.03;;;25.22;79.31
56006;BME280;41888;44.696;10.522;2023-05-07T09:48:44;100572.34;;;25.30;76.93
56006;BME280;41888;44.696;10.522;2023-05-07T09:53:43;100574.25;;;25.62;74.48
56006;BME280;41888;44.696;10.522;2023-05-07T09:56:13;100577.41;;;25.37;72.83
56006;BME280;41888;44.696;10.522;2023-05-07T09:58:42;100571.50;;;25.16;73.32
56006;BME280;41888;44.696;10.522;2023-05-07T10:01:11;100566.34;;;25.14;74.64
56006;BME280;41888;44.696;10.522;2023-05-07T10:03:40;100568.25;;;25.46;73.86
56006;BME280;41888;44.696;10.522;2023-05-07T10:06:08;100566.69;;;25.73;71.90
56006;BME280;41888;44.696;10.522;2023-05-07T10:08:36;100564.97;;;25.63;71.23
56006;BME280;41888;44.696;10.522;2023-05-07T10:11:03;100566.63;;;25.45;72.08
56006;BME280;41888;44.696;10.522;2023-05-07T10:13:30;100563.38;;;25.43;74.47
56006;BME280;41888;44.696;10.522;2023-05-07T10:15:57;100557.91;;;25.76;72.13
56006;BME280;41888;44.696;10.522;2023-05-07T10:18:23;100557.59;;;25.63;72.74
56006;BME280;41888;44.696;10.522;2023-05-07T10:20:57;100551.38;;;25.44;73.75
56006;BME280;41888;44.696;10.522;2023-05-07T10:23:26;100555.13;;;25.48;72.02
56006;BME280;41888;44.696;10.522;2023-05-07T10:25:53;100555.16;;;25.76;71.13
56006;BME280;41888;44.696;10.522;2023-05-07T10:28:22;100547.00;;;25.76;71.38
56006;BME280;41888;44.696;10.522;2023-05-07T10:31:27;100548.81;;;25.67;67.83
56006;BME280;41888;44.696;10.522;2023-05-07T10:33:56;100552.84;;;25.96;66.52
56006;BME280;41888;44.696;10.522;2023-05-07T10:36:23;100550.53;;;25.90;67.77
56006;BME280;41888;44.696;10.522;2023-05-07T10:38:50;100551.53;;;25.94;67.51
56006;BME280;41888;44.696;10.522;2023-05-07T10:41:16;100546.63;;;25.96;67.02
56006;BME280;41888;44.696;10.522;2023-05-07T10:43:45;100540.94;;;26.06;65.13
56006;BME280;41888;44.696;10.522;2023-05-07T10:46:16;100548.31;;;26.33;65.97
56006;BME280;41888;44.696;10.522;2023-05-07T10:51:28;100548.19;;;26.74;66.35
56006;BME280;41888;44.696;10.522;2023-05-07T10:56:40;100539.81;;;26.93;64.57
56006;BME280;41888;44.696;10.522;2023-05-07T11:01:53;100535.28;;;27.10;61.89
56006;BME280;41888;44.696;10.522;2023-05-07T11:04:20;100538.59;;;26.63;60.90
56006;BME280;41888;44.696;10.522;2023-05-07T11:13:04;100538.19;;;26.92;60.82
56006;BME280;41888;44.696;10.522;2023-05-07T11:15:07;100538.84;;;26.88;60.58
56006;BME280;41888;44.696;10.522;2023-05-07T11:17:34;100542.13;;;26.99;61.32
56006;BME280;41888;44.696;10.522;2023-05-07T11:20:01;100536.91;;;27.11;61.49
56006;BME280;41888;44.696;10.522;2023-05-07T11:25:02;100530.63;;;27.42;65.51
56006;BME280;41888;44.696;10.522;2023-05-07T11:27:29;100533.28;;;26.58;66.56
56006;BME280;41888;44.696;10.522;2023-05-07T11:29:56;100538.72;;;26.58;65.44
56006;BME280;41888;44.696;10.522;2023-05-07T11:32:27;100528.88;;;26.48;68.03
56006;BME280;41888;44.696;10.522;2023-05-07T11:34:58;100532.53;;;26.66;65.30
56006;BME280;41888;44.696;10.522;2023-05-07T11:37:26;100528.31;;;26.24;66.64
56006;BME280;41888;44.696;10.522;2023-05-07T11:40:07;100524.47;;;25.70;69.19
56006;BME280;41888;44.696;10.522;2023-05-07T11:42:37;100514.00;;;25.91;69.25
56006;BME280;41888;44.696;10.522;2023-05-07T11:45:05;100518.19;;;26.24;67.08
56006;BME280;41888;44.696;10.522;2023-05-07T11:47:32;100525.88;;;26.08;66.37
56006;BME280;41888;44.696;10.522;2023-05-07T11:50:03;100521.03;;;25.92;67.91
56006;BME280;41888;44.696;10.522;2023-05-07T11:52:30;100518.72;;;25.99;65.62
56006;BME280;41888;44.696;10.522;2023-05-07T11:54:58;100521.59;;;26.43;65.58
56006;BME280;41888;44.696;10.522;2023-05-07T11:57:26;100520.47;;;26.44;65.73
56006;BME280;41888;44.696;10.522;2023-05-07T11:59:59;100517.69;;;26.94;64.42
56006;BME280;41888;44.696;10.522;2023-05-07T12:02:28;100518.34;;;27.00;60.85
56006;BME280;41888;44.696;10.522;2023-05-07T12:04:55;100519.09;;;26.33;61.81
56006;BME280;41888;44.696;10.522;2023-05-07T12:07:21;100512.44;;;26.62;62.10
56006;BME280;41888;44.696;10.522;2023-05-07T12:09:49;100514.94;;;27.16;60.71
56006;BME280;41888;44.696;10.522;2023-05-07T12:12:16;100517.66;;;27.47;60.44
56006;BME280;41888;44.696;10.522;2023-05-07T12:14:44;100517.88;;;27.28;60.25
56006;BME280;41888;44.696;10.522;2023-05-07T12:17:12;100513.06;;;27.34;59.99
56006;BME280;41888;44.696;10.522;2023-05-07T12:19:40;100516.31;;;27.05;62.01
56006;BME280;41888;44.696;10.522;2023-05-07T12:22:10;100510.88;;;27.14;61.58
56006;BME280;41888;44.696;10.522;2023-05-07T12:24:49;100515.59;;;27.22;57.93
56006;BME280;41888;44.696;10.522;2023-05-07T12:27:16;100522.13;;;27.12;58.74
56006;BME280;41888;44.696;10.522;2023-05-07T12:29:50;100519.09;;;26.92;57.92
56006;BME280;41888;44.696;10.522;2023-05-07T12:32:25;100520.44;;;27.03;58.72
56006;BME280;41888;44.696;10.522;2023-05-07T12:34:52;100517.81;;;26.89;60.01
56006;BME280;41888;44.696;10.522;2023-05-07T12:37:24;100520.88;;;27.18;58.01
56006;BME280;41888;44.696;10.522;2023-05-07T12:42:35;100510.78;;;26.74;59.49
56006;BME280;41888;44.696;10.522;2023-05-07T12:45:11;100508.03;;;26.52;59.62
56006;BME280;41888;44.696;10.522;2023-05-07T12:47:38;100508.53;;;26.76;60.53
56006;BME280;41888;44.696;10.522;2023-05-07T12:50:07;100510.09;;;26.69;60.81
56006;BME280;41888;44.696;10.522;2023-05-07T12:52:34;100510.81;;;26.83;61.48
56006;BME280;41888;44.696;10.522;2023-05-07T12:55:07;100516.03;;;26.71;60.45
56006;BME280;41888;44.696;10.522;2023-05-07T12:57:50;100500.69;;;27.28;58.78